createdAt,value
2023-04-18T00:00:53.470Z,5.23
2023-04-18T00:03:19.916Z,5.24
2023-04-18T00:05:46.397Z,5.25
2023-04-18T00:08:12.904Z,5.19
2023-04-18T00:10:39.173Z,5.17
2023-04-18T00:13:05.567Z,5.17
2023-04-18T00:15:31.889Z,5.16
2023-04-18T00:17:58.207Z,5.12
2023-04-18T00:20:24.522Z,5.12
2023-04-18T00:22:50.841Z,5.10
2023-04-18T00:25:17.116Z,5.15
2023-04-18T00:27:43.435Z,5.04
2023-04-18T00:30:10.249Z,4.98
2023-04-18T00:32:36.616Z,4.96
2023-04-18T00:35:02.981Z,4.98
2023-04-18T00:37:29.900Z,4.97
2023-04-18T00:39:56.182Z,4.90
2023-04-18T00:42:22.517Z,4.82
2023-04-18T00:44:49.055Z,4.83
2023-04-18T00:47:16.312Z,4.86
2023-04-18T00:49:46.072Z,4.82
2023-04-18T00:52:12.984Z,4.83
2023-04-18T00:54:40.544Z,4.80
2023-04-18T00:57:06.849Z,4.80
2023-04-18T00:59:36.191Z,4.87
2023-04-18T01:02:03.508Z,4.81
2023-04-18T01:04:30.745Z,4.83
2023-04-18T01:06:57.296Z,4.83
2023-04-18T01:09:24.603Z,4.80
2023-04-18T01:11:50.926Z,4.76
2023-04-18T01:14:19.330Z,4.80
2023-04-18T01:16:46.584Z,4.76
2023-04-18T01:19:12.880Z,4.74
2023-04-18T01:21:39.142Z,4.75
2023-04-18T01:24:16.310Z,4.75
2023-04-18T01:26:45.039Z,4.75
2023-04-18T01:29:11.529Z,4.74
2023-04-18T01:31:38.861Z,4.79
2023-04-18T01:34:06.119Z,4.82
2023-04-18T01:36:32.922Z,4.83
2023-04-18T01:38:59.843Z,4.81
2023-04-18T01:41:26.514Z,4.89
2023-04-18T01:43:52.773Z,4.95
2023-04-18T01:46:19.101Z,5.05
2023-04-18T01:48:45.493Z,5.02
2023-04-18T01:51:11.792Z,5.07
2023-04-18T01:53:38.064Z,5.05
2023-04-18T01:56:04.531Z,5.13
2023-04-18T01:58:30.806Z,5.07
2023-04-18T02:00:57.106Z,5.10
2023-04-18T02:03:24.230Z,5.09
2023-04-18T02:05:51.541Z,5.10
2023-04-18T02:08:17.910Z,5.11
2023-04-18T02:10:44.243Z,5.16
2023-04-18T02:13:10.675Z,5.18
2023-04-18T02:15:37.168Z,5.15
2023-04-18T02:18:03.769Z,5.11
2023-04-18T02:20:30.310Z,5.12
2023-04-18T02:22:56.574Z,5.06
2023-04-18T02:25:22.841Z,5.04
2023-04-18T02:27:49.646Z,5.02
2023-04-18T02:30:15.996Z,5.04
2023-04-18T02:32:42.287Z,5.09
2023-04-18T02:35:08.760Z,5.07
2023-04-18T02:37:35.044Z,4.99
2023-04-18T02:40:01.401Z,4.96
2023-04-18T02:42:27.717Z,5.00
2023-04-18T02:44:53.999Z,4.94
2023-04-18T02:47:20.265Z,4.96
2023-04-18T02:49:46.538Z,4.98
2023-04-18T02:52:12.808Z,4.98
2023-04-18T02:54:39.060Z,4.98
2023-04-18T02:57:05.588Z,4.99
2023-04-18T02:59:31.885Z,4.98
2023-04-18T03:01:58.212Z,5.05
2023-04-18T03:04:24.550Z,4.97
2023-04-18T03:06:50.879Z,4.99
2023-04-18T03:09:17.185Z,4.95
2023-04-18T03:11:43.465Z,4.96
2023-04-18T03:14:09.805Z,4.95
2023-04-18T03:16:36.141Z,4.96
2023-04-18T03:19:02.434Z,4.96
2023-04-18T03:21:28.740Z,4.96
2023-04-18T03:23:55.012Z,4.98
2023-04-18T03:26:21.352Z,4.93
2023-04-18T03:28:47.628Z,4.95
2023-04-18T03:31:13.926Z,4.96
2023-04-18T03:33:40.181Z,4.96
2023-04-18T03:36:06.616Z,4.89
2023-04-18T03:38:32.882Z,4.88
2023-04-18T03:40:59.170Z,4.86
2023-04-18T03:43:25.436Z,4.85
2023-04-18T03:45:51.783Z,4.83
2023-04-18T03:48:18.115Z,4.79
2023-04-18T03:50:44.401Z,4.84
2023-04-18T03:53:10.730Z,4.92
2023-04-18T03:55:36.999Z,4.87
2023-04-18T03:58:03.361Z,4.82
2023-04-18T04:00:29.796Z,4.83
